Meath Environmental Platform

Observations for Trim Market St

Time AQI Temp °C Hum % Pres Pa CO μg/m³ H₂S μg/m³ NO μg/m³ NO₂ μg/m³ O₃ μg/m³ SO₂ μg/m³ PM1 μg/m³ PM2.5 μg/m³ PM10 μg/m³
Saturday 22 August 2026
18:57 3 21.6 41 65,454 0.02 0 1.24 13.95 80.06 0 2.85 6 8.33
18:56 3 21.7 41 65,462 0.08 0 1.54 10.68 69.9 0 2.85 7.06 9.12
18:55 3 21.7 41 65,468 0.05 0 1.79 20.94 68.81 0 2.14 7.06 11.52
18:54 3 21.7 41 65,447 0.25 0 1.73 43.56 49.31 0 2.85 6.01 6.73
18:53 3 21.7 41 65,449 0.18 0 1.75 71.15 28.56 0 3.56 8.12 9.93
18:52 3 21.7 41 65,460 0.39 0 1.73 64.76 33.45 0 6.41 10.23 15.53
18:51 3 21.7 41 65,466 0.5 0 1.74 49.18 43.15 0 2.14 6.54 9.13
18:49 3 21.7 41 65,471 0.06 0 1.74 44 51.3 0 2.85 8.13 11.53
18:48 3 21.7 41 65,454 0 0 1.7 50.39 43.51 0 1.43 7.08 11.53
18:45 3 21.8 40 65,469 0.04 0 1.22 29.12 58.45 0 2.14 6.57 9.94
18:44 3 21.8 40 65,475 0.06 0 1.14 31.54 57.97 0 2.85 6.57 8.33
18:33 3 22 39 65,493 0.1 0 1.19 38 64.26 0 3.56 8.21 10.76
18:30 3 22.1 39 65,505 0 0 1.1 7.17 78.65 0 2.14 7.69 11.58
18:29 3 22.1 39 65,497 0 0 1.09 5.73 70 0 2.14 7.16 8.34
18:28 3 22.1 39 65,485 0 0 1.08 13.02 77.96 0 3.56 7.69 11.58
18:27 3 22.2 39 65,499 0 0 1.12 13.01 74.44 0 2.85 7.17 8.34
18:26 3 22.2 39 65,487 0 0 1.29 10.67 91.77 0 3.56 7.7 12.39
18:25 3 22.2 39 65,475 0 0 1.34 12.78 82.33 0 3.56 9.29 12.4
18:24 3 22.3 39 65,479 0 0 1.54 10.18 86.29 0 2.85 8.24 10.77
18:23 3 22.3 39 65,483 0 0 1.67 13.94 87.94 0 4.28 8.77 11.59